Time;durP1;ratioP1;P1;durP2;ratioP2;P2;SDS_P1;SDS_P2;PMS_P1;PMS_P2;Temp;Humidity;BMP_temperature;BMP_pressure;BME280_temperature;BME280_humidity;BME280_pressure;Samples;Min_cycle;Max_cycle;Signal;HPM_P1;HPM_P2
2023/01/16 00:00:13;;;;;;;24.37;12.15;;;;;;;5.78;100.00;98070.00;4500727;31;20144;-70
2023/01/16 00:02:42;;;;;;;21.02;10.88;;;;;;;5.79;100.00;98063.88;4501015;31;20187;-70
2023/01/16 00:05:09;;;;;;;21.00;10.98;;;;;;;5.74;100.00;98060.81;4500966;31;20114;-70
2023/01/16 00:07:36;;;;;;;25.20;11.55;;;;;;;5.70;100.00;98057.63;4501111;31;20130;-70
2023/01/16 00:10:05;;;;;;;19.80;9.68;;;;;;;5.76;100.00;98061.53;4492873;31;20108;-70
2023/01/16 00:12:32;;;;;;;22.33;11.30;;;;;;;5.76;100.00;98057.13;4485397;31;20569;-70
2023/01/16 00:14:59;;;;;;;21.30;11.00;;;;;;;5.76;100.00;98054.53;4485116;31;20453;-70
2023/01/16 00:17:26;;;;;;;24.77;11.32;;;;;;;5.73;100.00;98052.19;4485024;31;20114;-70
2023/01/16 00:19:53;;;;;;;21.42;11.20;;;;;;;5.71;100.00;98048.91;4485210;31;20100;-70
2023/01/16 00:22:20;;;;;;;23.08;11.45;;;;;;;5.61;100.00;98037.59;4494631;31;20112;-70
2023/01/16 00:24:48;;;;;;;22.08;11.52;;;;;;;5.59;100.00;98040.31;4500937;31;20100;-70
2023/01/16 00:27:15;;;;;;;26.90;12.65;;;;;;;5.64;100.00;98039.94;4500785;31;20155;-70
2023/01/16 00:29:42;;;;;;;27.05;13.02;;;;;;;5.60;100.00;98039.38;4500781;31;20152;-70
2023/01/16 00:32:10;;;;;;;34.63;14.73;;;;;;;5.57;100.00;98031.81;4500865;31;20139;-70
2023/01/16 00:34:37;;;;;;;26.42;12.98;;;;;;;5.61;100.00;98035.00;4500560;31;20113;-70
2023/01/16 00:37:04;;;;;;;28.02;13.25;;;;;;;5.50;100.00;98034.06;4500835;31;20122;-70
2023/01/16 00:39:32;;;;;;;26.55;14.43;;;;;;;5.40;100.00;98020.16;4500771;31;20152;-70
2023/01/16 00:41:59;;;;;;;22.70;12.40;;;;;;;5.33;100.00;98017.25;4500679;31;20084;-70
2023/01/16 00:44:26;;;;;;;28.95;12.75;;;;;;;5.36;100.00;98023.97;4500802;31;20163;-70
2023/01/16 00:46:54;;;;;;;23.70;12.98;;;;;;;5.35;100.00;98022.31;4500612;31;20398;-70
2023/01/16 00:49:21;;;;;;;29.37;13.15;;;;;;;5.42;100.00;98023.50;4500554;31;20126;-70
2023/01/16 00:51:48;;;;;;;25.02;11.88;;;;;;;5.34;100.00;98025.84;4500823;31;20091;-70
2023/01/16 00:54:16;;;;;;;21.48;11.00;;;;;;;5.43;100.00;98025.13;4500527;31;20453;-70
2023/01/16 00:56:43;;;;;;;21.42;10.70;;;;;;;5.50;100.00;98026.28;4500685;31;20468;-70
2023/01/16 00:59:10;;;;;;;22.60;10.60;;;;;;;5.51;100.00;98033.13;4500587;31;20083;-70
2023/01/16 01:01:38;;;;;;;24.85;10.73;;;;;;;5.57;100.00;98021.44;4500626;31;20221;-70
2023/01/16 01:04:06;;;;;;;18.60;9.70;;;;;;;5.57;100.00;98015.41;4500331;31;20093;-70
2023/01/16 01:06:34;;;;;;;26.58;11.20;;;;;;;5.44;100.00;98020.78;4500203;31;20167;-70
2023/01/16 01:09:01;;;;;;;22.40;11.27;;;;;;;5.48;100.00;98019.56;4499034;31;20087;-70
2023/01/16 01:11:28;;;;;;;20.50;10.52;;;;;;;5.44;100.00;98012.97;4483936;31;20088;-70
2023/01/16 01:13:55;;;;;;;22.90;10.50;;;;;;;5.43;100.00;98006.94;4484558;31;20097;-70
2023/01/16 01:16:23;;;;;;;22.20;10.57;;;;;;;5.54;100.00;98010.44;4484684;32;20141;-70
2023/01/16 01:18:50;;;;;;;21.83;10.10;;;;;;;5.54;100.00;98002.66;4484542;32;20134;-70
2023/01/16 01:21:17;;;;;;;26.70;11.10;;;;;;;5.50;100.00;97997.72;4486950;31;20115;-70
2023/01/16 01:23:45;;;;;;;22.30;10.18;;;;;;;5.47;100.00;97982.38;4500327;31;20156;-70
2023/01/16 01:26:14;;;;;;;27.17;10.38;;;;;;;5.51;100.00;97982.94;4500253;31;20160;-70
2023/01/16 01:28:42;;;;;;;27.80;10.30;;;;;;;5.48;100.00;97986.63;4500223;31;20112;-70
2023/01/16 01:31:11;;;;;;;28.87;10.50;;;;;;;5.39;100.00;97991.72;4499845;31;20445;-70
2023/01/16 01:33:39;;;;;;;24.35;9.93;;;;;;;5.41;100.00;97985.47;4500231;31;20118;-70
2023/01/16 01:36:06;;;;;;;27.85;10.38;;;;;;;5.30;100.00;97985.53;4499900;31;20155;-70
2023/01/16 01:38:34;;;;;;;23.10;10.90;;;;;;;5.31;100.00;97990.59;4500211;31;20103;-70
2023/01/16 01:41:01;;;;;;;22.65;10.65;;;;;;;5.34;100.00;97994.69;4499980;31;20087;-70
2023/01/16 01:43:57;;;;;;;27.23;10.85;;;;;;;5.33;100.00;97998.25;4500003;31;20110;-70
2023/01/16 01:46:41;;;;;;;30.77;12.30;;;;;;;5.32;100.00;98004.37;4486978;31;20151;-70
2023/01/16 01:49:24;;;;;;;31.50;14.35;;;;;;;5.39;100.00;98015.09;4499886;31;20083;-70
2023/01/16 01:51:53;;;;;;;36.70;14.50;;;;;;;5.38;100.00;98009.09;4498968;31;20096;-70
2023/01/16 01:54:27;;;;;;;33.85;14.32;;;;;;;5.25;100.00;98001.44;4498521;31;20104;-70
2023/01/16 01:56:56;;;;;;;34.35;15.63;;;;;;;5.28;100.00;98000.38;4499621;31;20200;-70
2023/01/16 01:59:29;;;;;;;35.72;15.63;;;;;;;5.27;100.00;98004.75;4499629;31;20489;-70
2023/01/16 02:01:57;;;;;;;;;;;;;;;5.21;100.00;97988.81;4499903;31;20088;-70
2023/01/16 02:04:29;;;;;;;35.15;15.15;;;;;;;5.26;100.00;97989.31;4498735;31;19997;-70
2023/01/16 02:07:02;;;;;;;30.60;14.43;;;;;;;5.25;100.00;97990.25;4499806;31;20084;-70
2023/01/16 02:09:29;;;;;;;31.55;14.20;;;;;;;5.29;100.00;97991.66;4490017;31;20140;-70
2023/01/16 02:12:04;;;;;;;39.83;15.63;;;;;;;5.36;100.00;97986.78;4466850;32;20127;-70
2023/01/16 02:14:35;;;;;;;35.67;15.75;;;;;;;5.36;100.00;97977.22;4466710;32;20160;-70
2023/01/16 02:20:19;;;;;;;35.33;15.23;;;;;;;5.34;100.00;97968.72;4467916;32;20202;-70
2023/01/16 02:23:12;;;;;;;33.72;15.27;;;;;;;5.23;100.00;97959.19;4491306;31;20096;-70
2023/01/16 02:25:58;;;;;;;32.80;13.83;;;;;;;5.19;100.00;97950.00;4501538;31;20110;-70
2023/01/16 02:28:31;;;;;;;35.83;15.95;;;;;;;5.17;100.00;97945.91;4501833;31;20087;-70
2023/01/16 02:31:23;;;;;;;30.20;14.40;;;;;;;5.19;100.00;97938.81;4501465;31;20107;-70
2023/01/16 02:34:09;;;;;;;40.58;13.70;;;;;;;5.22;100.00;97928.16;4500543;31;20202;-70
2023/01/16 02:36:49;;;;;;;41.50;14.45;;;;;;;5.19;100.00;97923.22;4501593;31;20084;-70
2023/01/16 02:39:40;;;;;;;40.50;14.15;;;;;;;5.21;100.00;97911.78;4501667;31;20083;-70
2023/01/16 02:42:13;;;;;;;36.15;14.27;;;;;;;5.26;100.00;97919.19;4501453;31;20440;-70
2023/01/16 02:44:50;;;;;;;32.10;13.25;;;;;;;5.30;100.00;97915.41;4501837;31;20088;-70
2023/01/16 02:47:24;;;;;;;38.92;13.20;;;;;;;5.29;100.00;97924.12;4501397;31;20112;-70
2023/01/16 02:50:28;;;;;;;31.80;13.30;;;;;;;5.21;100.00;97923.91;4500297;31;20111;-70
2023/01/16 02:53:14;;;;;;;34.58;13.98;;;;;;;5.30;100.00;97915.41;4500555;31;20087;-70
2023/01/16 02:56:08;;;;;;;39.92;13.40;;;;;;;5.33;100.00;97912.56;4500207;31;20144;-70
2023/01/16 02:58:41;;;;;;;38.03;13.82;;;;;;;5.29;100.00;97914.56;4495643;31;20118;-70
2023/01/16 03:01:09;;;;;;;33.53;13.07;;;;;;;5.31;100.00;97901.44;4499988;31;20084;-70
2023/01/16 03:03:51;;;;;;;37.30;12.48;;;;;;;5.24;100.00;97895.94;4501477;31;20518;-70
2023/01/16 03:06:36;;;;;;;37.40;12.85;;;;;;;5.28;100.00;97880.94;4501435;31;20378;-70
2023/01/16 03:09:29;;;;;;;32.10;13.10;;;;;;;5.29;100.00;97888.59;4498599;31;20650;-70
2023/01/16 03:12:06;;;;;;;29.83;12.15;;;;;;;5.17;100.00;97883.59;4485533;32;20106;-70
2023/01/16 03:14:59;;;;;;;28.73;10.60;;;;;;;5.17;100.00;97874.03;4485726;32;20140;-70
2023/01/16 03:17:32;;;;;;;29.60;12.13;;;;;;;5.20;100.00;97871.16;4484374;32;20100;-70
2023/01/16 03:20:25;;;;;;;30.00;11.18;;;;;;;5.21;100.00;97867.63;4485723;31;20084;-70
2023/01/16 03:22:57;;;;;;;29.02;12.00;;;;;;;5.16;100.00;97867.16;4471477;32;20100;-70
2023/01/16 03:25:57;;;;;;;27.67;11.40;;;;;;;5.14;100.00;97869.88;4469663;32;20084;-70
2023/01/16 03:28:48;;;;;;;26.60;11.30;;;;;;;5.19;100.00;97868.69;4469981;32;20100;-70
2023/01/16 03:31:33;;;;;;;36.08;12.40;;;;;;;5.04;100.00;97857.78;4420771;32;20131;-70
2023/01/16 03:34:12;;;;;;;36.22;12.43;;;;;;;4.95;100.00;97854.16;4420565;32;20105;-70
2023/01/16 03:36:45;;;;;;;32.90;12.52;;;;;;;5.06;100.00;97856.72;4407954;32;20093;-70
2023/01/16 03:39:13;;;;;;;29.35;12.00;;;;;;;5.07;100.00;97842.81;4408354;32;20156;-70
2023/01/16 03:41:41;;;;;;;31.30;11.93;;;;;;;5.00;100.00;97846.00;4408115;32;20446;-70
2023/01/16 03:44:13;;;;;;;33.90;12.45;;;;;;;5.05;100.00;97847.28;4420899;32;20110;-70
2023/01/16 03:46:48;;;;;;;28.92;12.25;;;;;;;5.06;100.00;97841.16;4420803;32;20136;-69
2023/01/16 03:49:16;;;;;;;;;;;;;;;5.13;100.00;97836.25;4421184;32;20311;-70
2023/01/16 03:51:53;;;;;;;30.25;10.82;;;;;;;5.05;100.00;97831.69;4408273;32;20543;-70
2023/01/16 03:54:46;;;;;;;30.67;11.35;;;;;;;4.98;100.00;97822.75;4408494;32;20111;-70
2023/01/16 03:57:18;;;;;;;24.87;10.50;;;;;;;5.14;100.00;97822.34;4420510;32;20112;-70
2023/01/16 03:59:46;;;;;;;28.45;11.15;;;;;;;5.15;100.00;97818.81;4408342;32;20165;-70
2023/01/16 04:02:22;;;;;;;27.58;11.00;;;;;;;5.17;100.00;97835.06;4407852;32;20631;-70
2023/01/16 04:05:00;;;;;;;22.00;10.10;;;;;;;5.24;100.00;97817.19;4408110;32;20595;-70
2023/01/16 04:07:35;;;;;;;23.33;10.88;;;;;;;5.09;100.00;97819.31;4414662;32;20178;-70
2023/01/16 04:10:10;;;;;;;27.87;11.85;;;;;;;5.15;100.00;97811.84;4477480;32;20157;-70
2023/01/16 04:12:38;;;;;;;;;;;;;;;5.11;100.00;97807.03;4484179;32;20404;-70
2023/01/16 04:15:07;;;;;;;23.58;10.30;;;;;;;5.21;100.00;97787.12;4484126;32;19971;-70
2023/01/16 04:17:36;;;;;;;20.42;10.15;;;;;;;5.32;100.00;97797.44;4485125;31;20167;-70
2023/01/16 04:20:05;;;;;;;23.58;9.85;;;;;;;5.26;100.00;97786.75;4483942;32;20165;-70
2023/01/16 04:22:33;;;;;;;22.70;9.65;;;;;;;5.16;100.00;97776.28;4473358;32;20517;-70
2023/01/16 04:25:02;;;;;;;20.20;10.18;;;;;;;5.08;100.00;97776.13;4469297;32;20084;-70
2023/01/16 04:27:29;;;;;;;21.77;10.60;;;;;;;5.04;100.00;97774.72;4469292;32;20097;-70
2023/01/16 04:29:57;;;;;;;17.62;9.35;;;;;;;5.19;100.00;97777.81;4469460;32;20499;-70
2023/01/16 04:32:24;;;;;;;20.27;8.93;;;;;;;5.25;100.00;97785.09;4469137;32;20092;-70
2023/01/16 04:34:51;;;;;;;25.30;11.45;;;;;;;5.32;100.00;97778.44;4469216;32;20153;-70
2023/01/16 04:37:19;;;;;;;26.87;12.88;;;;;;;5.29;100.00;97769.13;4469320;32;20101;-70
2023/01/16 04:39:47;;;;;;;21.67;9.55;;;;;;;5.30;100.00;97767.37;4469468;32;20085;-70
2023/01/16 04:42:15;;;;;;;20.27;9.25;;;;;;;5.35;100.00;97767.81;4469146;32;20092;-70
2023/01/16 04:44:42;;;;;;;16.52;9.48;;;;;;;5.30;100.00;97764.78;4468859;32;20497;-70
2023/01/16 04:47:10;;;;;;;18.90;10.60;;;;;;;5.31;100.00;97756.03;4468511;32;20149;-70
2023/01/16 04:49:38;;;;;;;21.67;9.38;;;;;;;5.18;100.00;97750.22;4469298;32;20511;-70
2023/01/16 04:52:05;;;;;;;20.90;8.90;;;;;;;5.19;100.00;97747.47;4469080;32;20580;-70
2023/01/16 04:54:32;;;;;;;19.23;9.07;;;;;;;4.98;100.00;97739.72;4469169;32;20415;-70
2023/01/16 04:57:00;;;;;;;16.65;8.60;;;;;;;5.01;100.00;97739.47;4468923;32;20436;-70
2023/01/16 04:59:28;;;;;;;14.23;8.07;;;;;;;4.97;100.00;97732.88;4468582;32;20092;-70
2023/01/16 05:01:55;;;;;;;21.70;9.23;;;;;;;5.03;100.00;97727.19;4471214;32;20119;-70
2023/01/16 05:04:23;;;;;;;17.67;8.80;;;;;;;5.07;100.00;97736.38;4475137;31;20108;-70
2023/01/16 05:06:50;;;;;;;16.73;8.30;;;;;;;5.06;100.00;97729.53;4484018;32;20148;-70
2023/01/16 05:09:17;;;;;;;16.15;7.87;;;;;;;4.97;100.00;97723.31;4480074;32;20162;-70
2023/01/16 05:11:44;;;;;;;19.02;8.75;;;;;;;4.99;100.00;97730.97;4470742;32;20482;-72
2023/01/16 05:14:11;;;;;;;17.02;8.60;;;;;;;5.02;100.00;97715.16;4483474;31;20172;-72
2023/01/16 05:16:41;;;;;;;23.25;9.77;;;;;;;5.09;100.00;97726.66;4481968;32;20093;-72
2023/01/16 05:19:09;;;;;;;19.35;9.32;;;;;;;5.11;100.00;97729.13;4482660;31;20089;-72
2023/01/16 05:21:37;;;;;;;18.25;8.70;;;;;;;5.15;100.00;97728.75;4473846;31;20083;-72
2023/01/16 05:24:04;;;;;;;16.17;8.13;;;;;;;5.19;100.00;97728.50;4468612;32;20084;-72
2023/01/16 05:26:32;;;;;;;18.40;7.68;;;;;;;5.15;100.00;97722.75;4468595;32;20153;-72
2023/01/16 05:28:59;;;;;;;15.20;8.15;;;;;;;5.18;100.00;97714.69;4468455;32;20806;-72
2023/01/16 05:31:26;;;;;;;18.95;8.65;;;;;;;5.11;100.00;97718.75;4468241;32;20156;-72
2023/01/16 05:33:53;;;;;;;15.00;7.40;;;;;;;5.09;100.00;97711.09;4467715;32;20190;-72
2023/01/16 05:36:21;;;;;;;16.42;8.15;;;;;;;5.08;100.00;97714.63;4468014;32;20463;-72
2023/01/16 05:38:50;;;;;;;16.33;7.07;;;;;;;5.08;100.00;97708.63;4466805;32;20713;-72
2023/01/16 05:41:17;;;;;;;14.32;6.95;;;;;;;5.11;100.00;97709.19;4468473;32;20184;-72
2023/01/16 05:43:45;;;;;;;15.65;7.28;;;;;;;5.21;100.00;97711.00;4466491;32;20100;-72
2023/01/16 05:46:12;;;;;;;14.32;6.25;;;;;;;5.10;100.00;97717.94;4468504;32;20594;-72
2023/01/16 05:48:39;;;;;;;17.23;7.68;;;;;;;5.07;100.00;97710.41;4467322;32;20094;-72
2023/01/16 05:51:06;;;;;;;17.27;7.97;;;;;;;5.06;100.00;97711.34;4467749;32;20139;-72
2023/01/16 05:53:34;;;;;;;14.50;6.87;;;;;;;5.11;100.00;97709.19;4467884;32;20100;-72
2023/01/16 05:56:09;;;;;;;16.60;7.75;;;;;;;5.15;100.00;97715.78;4467499;32;20105;-72
2023/01/16 05:58:37;;;;;;;15.63;7.05;;;;;;;5.20;100.00;97723.16;4468517;32;20127;-72
2023/01/16 06:01:04;;;;;;;16.17;7.12;;;;;;;5.17;100.00;97717.44;4469542;32;20087;-72
2023/01/16 06:03:32;;;;;;;14.45;7.15;;;;;;;5.06;100.00;97706.16;4470055;32;20529;-72
2023/01/16 06:06:00;;;;;;;20.20;7.95;;;;;;;5.05;100.00;97704.50;4469687;32;20164;-72
2023/01/16 06:08:27;;;;;;;17.50;7.62;;;;;;;5.19;100.00;97710.31;4469875;32;20127;-71
2023/01/16 06:10:56;;;;;;;17.55;8.20;;;;;;;5.10;100.00;97714.50;4474209;32;20528;-72
2023/01/16 06:13:23;;;;;;;19.42;7.70;;;;;;;5.10;100.00;97711.91;4469748;32;20122;-72
2023/01/16 06:15:51;;;;;;;17.92;8.25;;;;;;;5.11;100.00;97704.00;4472454;32;20112;-71
2023/01/16 06:18:19;;;;;;;19.27;6.97;;;;;;;5.08;100.00;97699.06;4479269;32;20482;-72
2023/01/16 06:20:46;;;;;;;19.83;8.23;;;;;;;5.10;100.00;97696.34;4480106;31;20563;-72
2023/01/16 06:23:13;;;;;;;19.65;9.63;;;;;;;5.05;100.00;97699.31;4478775;31;20122;-72
2023/01/16 06:25:42;;;;;;;21.45;8.88;;;;;;;5.00;100.00;97691.09;4476297;32;20545;-72
2023/01/16 06:28:09;;;;;;;22.10;8.93;;;;;;;4.94;100.00;97684.66;4468135;32;20450;-72
2023/01/16 06:30:36;;;;;;;18.05;8.05;;;;;;;4.98;100.00;97691.22;4477957;31;20100;-72
2023/01/16 06:33:03;;;;;;;19.55;9.07;;;;;;;5.11;100.00;97682.41;4465874;32;20163;-72
2023/01/16 06:35:30;;;;;;;18.40;9.13;;;;;;;5.18;100.00;97674.91;4475524;32;20154;-72
2023/01/16 06:37:58;;;;;;;19.87;9.82;;;;;;;5.18;100.00;97678.34;4468711;32;20097;-72
2023/01/16 06:40:26;;;;;;;21.70;9.90;;;;;;;5.17;100.00;97688.88;4480227;32;20566;-72
2023/01/16 06:42:53;;;;;;;21.15;9.65;;;;;;;5.23;100.00;97680.56;4472271;32;20139;-72
2023/01/16 06:45:21;;;;;;;26.62;12.07;;;;;;;5.21;100.00;97675.50;4469230;32;20088;-71
2023/01/16 06:47:53;;;;;;;28.38;13.30;;;;;;;5.23;100.00;97677.97;4471452;32;20442;-72
2023/01/16 06:50:20;;;;;;;32.13;14.45;;;;;;;5.25;100.00;97673.44;4470971;32;20100;-71
2023/01/16 06:52:47;;;;;;;29.40;13.02;;;;;;;5.22;100.00;97681.50;4466257;32;20126;-72
2023/01/16 06:55:15;;;;;;;28.80;12.63;;;;;;;5.18;100.00;97687.91;4475138;31;20152;-71
2023/01/16 06:57:44;;;;;;;30.20;13.65;;;;;;;5.19;100.00;97682.56;4472579;32;20153;-72
2023/01/16 07:00:12;;;;;;;33.17;13.25;;;;;;;5.25;100.00;97682.06;4474188;32;20116;-71
2023/01/16 07:02:40;;;;;;;28.02;11.30;;;;;;;5.21;100.00;97691.06;4476964;31;20107;-71
2023/01/16 07:05:11;;;;;;;31.80;12.70;;;;;;;5.22;100.00;97692.69;4466993;32;20104;-70
2023/01/16 07:07:39;;;;;;;25.80;12.77;;;;;;;5.12;100.00;97690.06;4465108;31;20108;-70
2023/01/16 07:10:07;;;;;;;26.77;11.85;;;;;;;5.10;100.00;97685.94;4471677;32;20099;-71
2023/01/16 07:12:34;;;;;;;25.50;11.45;;;;;;;5.19;100.00;97689.56;4469231;32;20096;-71
2023/01/16 07:23:23;;;;;;;27.52;11.27;;;;;;;5.25;100.00;97676.84;4494371;31;20093;-72
2023/01/16 07:25:50;;;;;;;27.87;11.60;;;;;;;5.35;100.00;97678.69;4481955;32;20097;-71
2023/01/16 07:28:19;;;;;;;28.23;12.50;;;;;;;5.54;100.00;97686.56;4475745;32;20131;-71
2023/01/16 07:30:47;;;;;;;33.65;13.82;;;;;;;5.56;100.00;97681.22;4474170;32;20177;-70
2023/01/16 07:33:14;;;;;;;52.50;17.08;;;;;;;5.33;100.00;97671.84;4468260;32;20157;-70
2023/01/16 07:35:42;;;;;;;110.97;19.62;;;;;;;5.27;100.00;97659.38;4467774;32;20088;-71
2023/01/16 07:38:10;;;;;;;105.03;25.52;;;;;;;5.34;100.00;97657.06;4469286;32;20101;-71
2023/01/16 07:40:37;;;;;;;123.70;25.30;;;;;;;5.47;100.00;97643.88;4471213;31;20088;-70
2023/01/16 07:43:04;;;;;;;76.93;19.85;;;;;;;5.54;100.00;97636.34;4467726;32;20605;-70
2023/01/16 07:45:31;;;;;;;147.45;22.80;;;;;;;5.63;100.00;97630.34;4484560;32;20183;-71
2023/01/16 07:48:00;;;;;;;153.62;22.77;;;;;;;5.65;100.00;97628.47;4477448;31;20414;-70
2023/01/16 07:50:28;;;;;;;183.93;25.27;;;;;;;5.59;100.00;97622.03;4471788;32;20119;-70
2023/01/16 07:52:56;;;;;;;108.55;22.90;;;;;;;5.51;100.00;97621.84;4472758;32;20096;-71
2023/01/16 07:55:23;;;;;;;126.35;23.80;;;;;;;5.56;100.00;97613.69;4471443;32;20096;-71
2023/01/16 07:57:50;;;;;;;120.05;22.98;;;;;;;5.63;100.00;97606.97;4471672;32;20166;-69
2023/01/16 08:00:18;;;;;;;162.90;26.50;;;;;;;5.51;100.00;97601.91;4479224;32;20600;-71
2023/01/16 08:02:46;;;;;;;73.97;22.20;;;;;;;5.51;100.00;97601.06;4472435;31;20101;-69
2023/01/16 08:05:13;;;;;;;171.23;27.42;;;;;;;5.54;100.00;97589.59;4466471;32;20109;-70
2023/01/16 08:07:43;;;;;;;204.27;27.33;;;;;;;5.58;100.00;97581.41;4467417;32;20123;-71
2023/01/16 08:10:11;;;;;;;218.02;31.70;;;;;;;5.46;100.00;97577.28;4470962;32;20285;-70
2023/01/16 08:12:39;;;;;;;197.98;26.30;;;;;;;5.43;100.00;97583.56;4472363;31;20750;-70
2023/01/16 08:15:06;;;;;;;92.70;24.25;;;;;;;5.40;100.00;97573.44;4473477;31;20408;-70
2023/01/16 08:17:33;;;;;;;115.15;23.23;;;;;;;5.57;100.00;97571.97;4474742;31;20186;-69
2023/01/16 08:20:04;;;;;;;131.63;22.73;;;;;;;5.45;100.00;97558.28;4472201;32;20104;-69
2023/01/16 08:22:31;;;;;;;74.53;21.85;;;;;;;5.66;100.00;97546.94;4467734;31;20091;-70
2023/01/16 08:24:58;;;;;;;50.75;18.90;;;;;;;5.45;100.00;97550.50;4475801;32;20438;-69
2023/01/16 08:27:26;;;;;;;48.20;18.50;;;;;;;5.35;100.00;97552.25;4478569;31;20146;-69
2023/01/16 08:29:53;;;;;;;50.33;17.95;;;;;;;5.56;100.00;97543.53;4474240;32;20112;-70
2023/01/16 08:32:20;;;;;;;45.33;18.50;;;;;;;5.49;100.00;97538.06;4476996;31;20130;-70
2023/01/16 08:34:47;;;;;;;44.72;18.80;;;;;;;5.54;100.00;97528.09;4469908;32;20150;-70
2023/01/16 08:37:14;;;;;;;41.67;16.45;;;;;;;5.55;100.00;97515.91;4477316;32;20104;-68
2023/01/16 08:39:42;;;;;;;49.53;16.70;;;;;;;5.59;100.00;97509.50;4472201;31;20148;-69
2023/01/16 08:53:13;;;;;;;30.70;13.70;;;;;;;4.77;100.00;97491.47;4477764;31;20156;-70
2023/01/16 08:55:40;;;;;;;39.92;16.70;;;;;;;4.87;100.00;97481.09;4469866;32;20631;-71
2023/01/16 08:58:07;;;;;;;36.35;16.60;;;;;;;4.96;100.00;97482.09;4475488;32;20120;-70
2023/01/16 09:00:35;;;;;;;46.25;20.30;;;;;;;4.87;100.00;97472.50;4490620;31;20111;-68
2023/01/16 09:03:03;;;;;;;45.53;20.45;;;;;;;4.76;100.00;97470.84;4473946;32;20084;-69
2023/01/16 09:05:30;;;;;;;42.15;18.25;;;;;;;4.76;100.00;97465.66;4467116;32;20152;-69
2023/01/16 09:07:57;;;;;;;39.65;16.60;;;;;;;4.85;100.00;97451.88;4474670;32;20470;-69
2023/01/16 09:10:27;;;;;;;41.10;15.98;;;;;;;5.01;100.00;97448.78;4472695;31;20108;-69
2023/01/16 09:15:41;;;;;;;36.95;14.77;;;;;;;5.11;100.00;97434.00;4476967;32;20097;-69
2023/01/16 09:18:08;;;;;;;31.73;13.73;;;;;;;4.93;100.00;97423.47;4478315;32;20883;-69
2023/01/16 09:20:35;;;;;;;35.63;15.10;;;;;;;5.06;100.00;97415.44;4470790;31;21000;-69
2023/01/16 09:23:03;;;;;;;31.75;13.30;;;;;;;5.06;100.00;97409.44;4478780;31;20484;-69
2023/01/16 09:25:32;;;;;;;32.08;12.50;;;;;;;5.17;100.00;97403.28;4472775;32;20173;-70
2023/01/16 09:27:59;;;;;;;31.55;13.38;;;;;;;5.21;100.00;97412.44;4466099;32;20155;-69
2023/01/16 09:30:27;;;;;;;31.25;12.00;;;;;;;5.29;100.00;97387.44;4479137;32;20126;-69
2023/01/16 09:32:54;;;;;;;34.50;14.13;;;;;;;5.06;100.00;97388.69;4475099;31;20129;-70
2023/01/16 09:35:21;;;;;;;33.38;13.38;;;;;;;5.24;100.00;97379.25;4472925;32;20084;-69
2023/01/16 09:37:49;;;;;;;36.50;14.90;;;;;;;5.38;100.00;97369.38;4474495;32;20140;-69
2023/01/16 09:40:18;;;;;;;34.63;13.75;;;;;;;5.30;100.00;97364.91;4471547;32;20096;-68
2023/01/16 09:45:50;;;;;;;30.65;11.93;;;;;;;5.12;100.00;97350.00;4472140;32;20179;-69
2023/01/16 09:48:34;;;;;;;29.77;13.82;;;;;;;5.22;100.00;97341.37;4468243;31;20101;-68
2023/01/16 09:51:06;;;;;;;36.30;14.15;;;;;;;5.10;100.00;97343.31;4471414;32;20120;-70
2023/01/16 09:59:27;;;;;;;34.67;12.55;;;;;;;5.08;100.00;97330.47;4484036;31;21389;-69
2023/01/16 10:02:25;;;;;;;35.92;14.70;;;;;;;5.11;100.00;97319.00;4472171;31;20130;-68
2023/01/16 10:04:56;;;;;;;19.60;9.30;;;;;;;4.95;100.00;97311.75;4467273;32;20464;-69
2023/01/16 10:07:50;;;;;;;26.87;11.20;;;;;;;4.95;100.00;97311.75;4472282;32;20190;-70
2023/01/16 10:10:36;;;;;;;29.92;11.70;;;;;;;4.87;100.00;97301.25;4472706;32;20667;-70
2023/01/16 10:13:21;;;;;;;31.50;11.98;;;;;;;4.92;100.00;97293.88;4479235;32;20093;-70
2023/01/16 10:16:06;;;;;;;29.83;12.77;;;;;;;4.92;100.00;97286.06;4474599;31;20156;-70
2023/01/16 10:18:56;;;;;;;25.45;11.55;;;;;;;5.11;100.00;97285.25;4480896;32;20149;-69
2023/01/16 10:21:40;;;;;;;26.33;12.55;;;;;;;5.08;100.00;97278.53;4473831;32;20124;-69
2023/01/16 10:24:26;;;;;;;29.57;12.07;;;;;;;4.97;100.00;97266.53;4478253;32;20114;-68
2023/01/16 10:26:58;;;;;;;33.70;13.38;;;;;;;4.98;100.00;97268.19;4475451;32;20111;-69
2023/01/16 10:29:30;;;;;;;28.83;12.43;;;;;;;5.24;100.00;97256.38;4467382;32;20076;-69
2023/01/16 10:32:06;;;;;;;26.12;11.20;;;;;;;5.23;100.00;97254.75;4471830;32;20097;-69
2023/01/16 10:34:37;;;;;;;32.97;13.52;;;;;;;5.11;100.00;97246.31;4473490;32;20092;-69
2023/01/16 10:37:05;;;;;;;38.75;13.93;;;;;;;5.22;100.00;97238.34;4476318;32;20134;-69
2023/01/16 10:39:34;;;;;;;35.10;13.68;;;;;;;5.45;100.00;97240.59;4481349;32;20105;-69
2023/01/16 10:50:39;;;;;;;31.62;11.98;;;;;;;5.40;100.00;97214.25;4471733;32;20112;-69
2023/01/16 10:53:09;;;;;;;36.03;14.45;;;;;;;5.21;100.00;97199.53;4479185;32;20146;-69
2023/01/16 10:55:39;;;;;;;33.30;14.57;;;;;;;5.30;100.00;97201.31;4473546;31;20104;-71
2023/01/16 10:58:21;;;;;;;27.05;12.52;;;;;;;5.30;100.00;97191.75;4470567;32;20095;-69
2023/01/16 11:00:50;;;;;;;37.53;14.73;;;;;;;5.08;100.00;97189.50;4470417;32;20157;-70
2023/01/16 11:03:27;;;;;;;30.08;12.60;;;;;;;5.22;100.00;97181.22;4469359;32;20117;-69
2023/01/16 11:06:06;;;;;;;34.10;12.90;;;;;;;5.23;100.00;97174.28;4473996;32;20469;-70
2023/01/16 11:08:35;;;;;;;34.70;14.07;;;;;;;5.17;100.00;97167.06;4474031;31;20472;-70
2023/01/16 11:11:02;;;;;;;36.78;13.98;;;;;;;5.23;100.00;97169.91;4481227;32;20100;-68
2023/01/16 11:19:27;;;;;;;42.97;17.02;;;;;;;5.09;100.00;97147.00;4451149;32;20154;-70
2023/01/16 11:22:08;;;;;;;38.65;15.98;;;;;;;5.26;100.00;97135.03;4449384;32;20156;-70
2023/01/16 11:24:39;;;;;;;34.03;15.13;;;;;;;5.18;100.00;97122.78;4435095;32;20457;-69
2023/01/16 11:27:14;;;;;;;36.88;13.38;;;;;;;5.39;100.00;97125.16;4447931;32;20501;-70
2023/01/16 11:29:43;;;;;;;36.30;15.60;;;;;;;5.37;100.00;97121.84;4434938;32;20135;-70
2023/01/16 11:32:13;;;;;;;34.38;14.80;;;;;;;5.31;100.00;97106.84;4446145;32;20222;-70
2023/01/16 11:34:45;;;;;;;40.35;15.23;;;;;;;5.32;100.00;97104.13;4432317;32;20105;-69
2023/01/16 11:37:15;;;;;;;40.90;16.12;;;;;;;5.39;100.00;97093.97;4432476;32;20678;-70
2023/01/16 11:39:48;;;;;;;37.20;14.77;;;;;;;5.57;100.00;97096.59;4446545;32;20196;-68
2023/01/16 11:48:22;;;;;;;36.53;14.35;;;;;;;5.36;100.00;97080.47;4470949;32;20168;-68
2023/01/16 11:50:51;;;;;;;34.88;14.52;;;;;;;5.36;100.00;97073.50;4469215;32;20103;-68
2023/01/16 11:53:18;;;;;;;38.88;15.30;;;;;;;5.27;100.00;97069.19;4466320;32;20164;-68
2023/01/16 11:55:59;;;;;;;41.17;15.35;;;;;;;5.22;100.00;97064.41;4476786;31;20484;-68
2023/01/16 11:58:38;;;;;;;40.03;15.75;;;;;;;5.18;100.00;97046.66;4472261;31;20156;-68
2023/01/16 12:01:16;;;;;;;35.88;13.23;;;;;;;5.27;100.00;97040.62;4468783;32;20124;-68
2023/01/16 12:03:50;;;;;;;38.05;14.85;;;;;;;5.07;100.00;97030.38;4471961;31;20092;-68
2023/01/16 12:06:32;;;;;;;42.13;15.40;;;;;;;5.03;100.00;97018.63;4473839;32;20455;-68
2023/01/16 12:09:04;;;;;;;33.78;13.85;;;;;;;5.09;100.00;97023.22;4477429;31;20877;-68
2023/01/16 12:11:40;;;;;;;28.45;12.15;;;;;;;5.07;100.00;97009.59;4471072;31;20108;-67
2023/01/16 12:14:33;;;;;;;36.97;16.17;;;;;;;5.06;100.00;96989.78;4468853;32;20100;-68
2023/01/16 12:17:03;;;;;;;32.28;13.30;;;;;;;5.00;100.00;96989.53;4474957;32;20442;-68
2023/01/16 12:20:07;;;;;;;38.08;14.90;;;;;;;5.05;100.00;96980.34;4469609;32;20104;-68
2023/01/16 12:23:03;;;;;;;39.63;15.40;;;;;;;5.02;100.00;96978.06;4477265;31;20438;-67
2023/01/16 12:25:39;;;;;;;49.83;16.20;;;;;;;4.72;100.00;96964.44;4466723;32;20140;-66
2023/01/16 12:28:28;;;;;;;39.45;14.90;;;;;;;4.77;100.00;96964.03;4469903;32;20557;-66
2023/01/16 12:31:17;;;;;;;42.80;16.02;;;;;;;4.72;100.00;96953.25;4489769;31;20499;-67
2023/01/16 12:34:10;;;;;;;39.85;15.63;;;;;;;4.73;100.00;96950.50;4479093;32;20112;-65